Terminal Aerodrome Forecast
Issued by NWS Raleigh/Durham, NC

Home | Current Version | Previous Version | Text Only | Print | Product List | Glossary On
Versions: 1 2 3 4 5 6 7 8 9 10 11 12 13 14 15 16 17 18 19 20 21 22 23 24 25 26 27 28 29 30 31 32 33 34 35 36 37 38 39 40 41 42 43 44 45 46 47 48
000
FTUS42 KRAH 180521
TAFFAY
TAF
KFAY 180521Z 1806/1906 08005KT P6SM SCT012 BKN035
     FM180900 06004KT 5SM BR SCT008 SCT045
      TEMPO 1809/1813 2SM BR BKN008
     FM181300 06006KT P6SM SCT020 SCT050
     FM181700 07006KT P6SM SCT040 SCT150=

USA.gov is the U.S. government's official web portal to all federal, state and local government web resources and services.